sensor_id;sensor_type;location;lat;lon;timestamp;temperature;humidity
36374;DHT22;22399;51.346;12.372;2024-03-02T00:01:36;7.70;99.90
36374;DHT22;22399;51.346;12.372;2024-03-02T00:04:05;7.70;99.90
36374;DHT22;22399;51.346;12.372;2024-03-02T00:06:34;7.70;99.90
36374;DHT22;22399;51.346;12.372;2024-03-02T00:09:03;7.70;99.90
36374;DHT22;22399;51.346;12.372;2024-03-02T00:11:34;7.70;99.90
36374;DHT22;22399;51.346;12.372;2024-03-02T00:14:04;7.70;99.90
36374;DHT22;22399;51.346;12.372;2024-03-02T00:16:32;7.60;99.90
36374;DHT22;22399;51.346;12.372;2024-03-02T00:19:03;7.60;99.90
36374;DHT22;22399;51.346;12.372;2024-03-02T00:21:33;7.50;99.90
36374;DHT22;22399;51.346;12.372;2024-03-02T00:24:07;7.50;99.90
36374;DHT22;22399;51.346;12.372;2024-03-02T00:26:44;7.40;99.90
36374;DHT22;22399;51.346;12.372;2024-03-02T00:29:15;7.40;99.90
36374;DHT22;22399;51.346;12.372;2024-03-02T00:31:45;7.40;99.90
36374;DHT22;22399;51.346;12.372;2024-03-02T00:34:14;7.30;99.90
36374;DHT22;22399;51.346;12.372;2024-03-02T00:36:43;7.30;99.90
36374;DHT22;22399;51.346;12.372;2024-03-02T00:39:12;7.30;99.90
36374;DHT22;22399;51.346;12.372;2024-03-02T00:41:43;7.30;99.90
36374;DHT22;22399;51.346;12.372;2024-03-02T00:44:12;7.30;99.90
36374;DHT22;22399;51.346;12.372;2024-03-02T00:46:42;7.30;99.90
36374;DHT22;22399;51.346;12.372;2024-03-02T00:49:17;7.30;99.90
36374;DHT22;22399;51.346;12.372;2024-03-02T00:51:48;7.30;99.90
36374;DHT22;22399;51.346;12.372;2024-03-02T00:54:23;7.30;99.90
36374;DHT22;22399;51.346;12.372;2024-03-02T00:56:53;7.30;99.90
36374;DHT22;22399;51.346;12.372;2024-03-02T00:59:23;7.30;99.90
36374;DHT22;22399;51.346;12.372;2024-03-02T01:01:52;7.40;99.90
36374;DHT22;22399;51.346;12.372;2024-03-02T01:04:22;7.40;99.90
36374;DHT22;22399;51.346;12.372;2024-03-02T01:06:51;7.40;99.90
36374;DHT22;22399;51.346;12.372;2024-03-02T01:09:19;7.40;99.90
36374;DHT22;22399;51.346;12.372;2024-03-02T01:11:48;7.40;99.90
36374;DHT22;22399;51.346;12.372;2024-03-02T01:14:16;7.40;99.90
36374;DHT22;22399;51.346;12.372;2024-03-02T01:16:45;7.30;99.90
36374;DHT22;22399;51.346;12.372;2024-03-02T01:19:13;7.30;99.90
36374;DHT22;22399;51.346;12.372;2024-03-02T01:21:43;7.30;99.90
36374;DHT22;22399;51.346;12.372;2024-03-02T01:24:12;7.30;99.90
36374;DHT22;22399;51.346;12.372;2024-03-02T01:26:40;7.30;99.90
36374;DHT22;22399;51.346;12.372;2024-03-02T01:29:09;7.20;99.90
36374;DHT22;22399;51.346;12.372;2024-03-02T01:31:37;7.20;99.90
36374;DHT22;22399;51.346;12.372;2024-03-02T01:34:07;7.20;99.90
36374;DHT22;22399;51.346;12.372;2024-03-02T01:36:35;7.20;99.90
36374;DHT22;22399;51.346;12.372;2024-03-02T01:39:05;7.10;99.90
36374;DHT22;22399;51.346;12.372;2024-03-02T01:41:36;7.10;99.90
36374;DHT22;22399;51.346;12.372;2024-03-02T01:44:04;7.10;99.90
36374;DHT22;22399;51.346;12.372;2024-03-02T01:46:33;7.10;99.90
36374;DHT22;22399;51.346;12.372;2024-03-02T01:49:01;7.10;99.90
36374;DHT22;22399;51.346;12.372;2024-03-02T01:51:30;7.10;99.90
36374;DHT22;22399;51.346;12.372;2024-03-02T01:53:58;7.10;99.90
36374;DHT22;22399;51.346;12.372;2024-03-02T01:56:28;7.10;99.90
36374;DHT22;22399;51.346;12.372;2024-03-02T01:58:56;7.10;99.90
36374;DHT22;22399;51.346;12.372;2024-03-02T02:01:25;7.20;99.90
36374;DHT22;22399;51.346;12.372;2024-03-02T02:03:53;7.20;99.90
36374;DHT22;22399;51.346;12.372;2024-03-02T02:06:22;7.20;99.90
36374;DHT22;22399;51.346;12.372;2024-03-02T02:08:50;7.20;99.90
36374;DHT22;22399;51.346;12.372;2024-03-02T02:11:19;7.20;99.90
36374;DHT22;22399;51.346;12.372;2024-03-02T02:13:49;7.20;99.90
36374;DHT22;22399;51.346;12.372;2024-03-02T02:16:17;7.30;99.90
36374;DHT22;22399;51.346;12.372;2024-03-02T02:18:46;7.30;99.90
36374;DHT22;22399;51.346;12.372;2024-03-02T02:21:14;7.30;99.90
36374;DHT22;22399;51.346;12.372;2024-03-02T02:23:44;7.30;99.90
36374;DHT22;22399;51.346;12.372;2024-03-02T02:26:15;7.30;99.90
36374;DHT22;22399;51.346;12.372;2024-03-02T02:28:43;7.30;99.90
36374;DHT22;22399;51.346;12.372;2024-03-02T02:31:14;7.30;99.90
36374;DHT22;22399;51.346;12.372;2024-03-02T02:33:43;7.40;99.90
36374;DHT22;22399;51.346;12.372;2024-03-02T02:36:11;7.30;99.90
36374;DHT22;22399;51.346;12.372;2024-03-02T02:38:42;7.40;99.90
36374;DHT22;22399;51.346;12.372;2024-03-02T02:41:13;7.40;99.90
36374;DHT22;22399;51.346;12.372;2024-03-02T02:43:41;7.40;99.90
36374;DHT22;22399;51.346;12.372;2024-03-02T02:46:10;7.40;99.90
36374;DHT22;22399;51.346;12.372;2024-03-02T02:48:39;7.40;99.90
36374;DHT22;22399;51.346;12.372;2024-03-02T02:51:07;7.40;99.90
36374;DHT22;22399;51.346;12.372;2024-03-02T02:53:35;7.40;99.90
36374;DHT22;22399;51.346;12.372;2024-03-02T02:56:07;7.40;99.90
36374;DHT22;22399;51.346;12.372;2024-03-02T02:58:37;7.40;99.90
36374;DHT22;22399;51.346;12.372;2024-03-02T03:01:05;7.40;99.90
36374;DHT22;22399;51.346;12.372;2024-03-02T03:03:33;7.40;99.90
36374;DHT22;22399;51.346;12.372;2024-03-02T03:06:03;7.40;99.90
36374;DHT22;22399;51.346;12.372;2024-03-02T03:08:32;7.30;99.90
36374;DHT22;22399;51.346;12.372;2024-03-02T03:11:00;7.30;99.90
36374;DHT22;22399;51.346;12.372;2024-03-02T03:13:29;7.30;99.90
36374;DHT22;22399;51.346;12.372;2024-03-02T03:15:59;7.30;99.90
36374;DHT22;22399;51.346;12.372;2024-03-02T03:18:27;7.30;99.90
36374;DHT22;22399;51.346;12.372;2024-03-02T03:20:56;7.30;99.90
36374;DHT22;22399;51.346;12.372;2024-03-02T03:23:24;7.30;99.90
36374;DHT22;22399;51.346;12.372;2024-03-02T03:25:53;7.30;99.90
36374;DHT22;22399;51.346;12.372;2024-03-02T03:28:21;7.30;99.90
36374;DHT22;22399;51.346;12.372;2024-03-02T03:30:50;7.30;99.90
36374;DHT22;22399;51.346;12.372;2024-03-02T03:33:20;7.30;99.90
36374;DHT22;22399;51.346;12.372;2024-03-02T03:35:48;7.30;99.90
36374;DHT22;22399;51.346;12.372;2024-03-02T03:38:16;7.30;99.90
36374;DHT22;22399;51.346;12.372;2024-03-02T03:40:44;7.30;99.90
36374;DHT22;22399;51.346;12.372;2024-03-02T03:43:13;7.30;99.90
36374;DHT22;22399;51.346;12.372;2024-03-02T03:45:41;7.30;99.90
36374;DHT22;22399;51.346;12.372;2024-03-02T03:48:10;7.30;99.90
36374;DHT22;22399;51.346;12.372;2024-03-02T03:50:40;7.30;99.90
36374;DHT22;22399;51.346;12.372;2024-03-02T03:53:09;7.30;99.90
36374;DHT22;22399;51.346;12.372;2024-03-02T03:55:37;7.30;99.90
36374;DHT22;22399;51.346;12.372;2024-03-02T03:58:05;7.30;99.90
36374;DHT22;22399;51.346;12.372;2024-03-02T04:00:34;7.30;99.90
36374;DHT22;22399;51.346;12.372;2024-03-02T04:03:03;7.30;99.90
36374;DHT22;22399;51.346;12.372;2024-03-02T04:05:31;7.30;99.90
36374;DHT22;22399;51.346;12.372;2024-03-02T04:08:01;7.30;99.90
36374;DHT22;22399;51.346;12.372;2024-03-02T04:10:30;7.30;99.90
36374;DHT22;22399;51.346;12.372;2024-03-02T04:12:58;7.30;99.90
36374;DHT22;22399;51.346;12.372;2024-03-02T04:15:26;7.30;99.90
36374;DHT22;22399;51.346;12.372;2024-03-02T04:17:55;7.30;99.90
36374;DHT22;22399;51.346;12.372;2024-03-02T04:20:23;7.20;99.90
36374;DHT22;22399;51.346;12.372;2024-03-02T04:22:52;7.20;99.90
36374;DHT22;22399;51.346;12.372;2024-03-02T04:25:22;7.20;99.90
36374;DHT22;22399;51.346;12.372;2024-03-02T04:27:50;7.20;99.90
36374;DHT22;22399;51.346;12.372;2024-03-02T04:30:18;7.20;99.90
36374;DHT22;22399;51.346;12.372;2024-03-02T04:32:47;7.10;99.90
36374;DHT22;22399;51.346;12.372;2024-03-02T04:35:16;7.10;99.90
36374;DHT22;22399;51.346;12.372;2024-03-02T04:37:44;7.10;99.90
36374;DHT22;22399;51.346;12.372;2024-03-02T04:40:12;7.10;99.90
36374;DHT22;22399;51.346;12.372;2024-03-02T04:42:42;7.10;99.90
36374;DHT22;22399;51.346;12.372;2024-03-02T04:45:11;7.10;99.90
36374;DHT22;22399;51.346;12.372;2024-03-02T04:47:39;7.10;99.90
36374;DHT22;22399;51.346;12.372;2024-03-02T04:50:08;7.00;99.90
36374;DHT22;22399;51.346;12.372;2024-03-02T04:52:37;7.00;99.90
36374;DHT22;22399;51.346;12.372;2024-03-02T04:55:05;7.00;99.90
36374;DHT22;22399;51.346;12.372;2024-03-02T04:58:04;7.00;99.90
36374;DHT22;22399;51.346;12.372;2024-03-02T05:00:32;7.00;99.90
36374;DHT22;22399;51.346;12.372;2024-03-02T05:03:01;7.00;99.90
36374;DHT22;22399;51.346;12.372;2024-03-02T05:05:29;7.00;99.90
36374;DHT22;22399;51.346;12.372;2024-03-02T05:07:57;7.00;99.90
36374;DHT22;22399;51.346;12.372;2024-03-02T05:10:26;7.00;99.90
36374;DHT22;22399;51.346;12.372;2024-03-02T05:12:54;7.00;99.90
36374;DHT22;22399;51.346;12.372;2024-03-02T05:15:28;6.90;99.90
36374;DHT22;22399;51.346;12.372;2024-03-02T05:17:56;6.90;99.90
36374;DHT22;22399;51.346;12.372;2024-03-02T05:20:27;6.90;99.90
36374;DHT22;22399;51.346;12.372;2024-03-02T05:22:55;6.90;99.90
36374;DHT22;22399;51.346;12.372;2024-03-02T05:25:23;7.00;99.90
36374;DHT22;22399;51.346;12.372;2024-03-02T05:27:52;7.00;99.90
36374;DHT22;22399;51.346;12.372;2024-03-02T05:30:20;7.00;99.90
36374;DHT22;22399;51.346;12.372;2024-03-02T05:32:50;7.00;99.90
36374;DHT22;22399;51.346;12.372;2024-03-02T05:35:19;7.10;99.90
36374;DHT22;22399;51.346;12.372;2024-03-02T05:37:47;7.10;99.90
36374;DHT22;22399;51.346;12.372;2024-03-02T05:40:15;7.10;99.90
36374;DHT22;22399;51.346;12.372;2024-03-02T05:42:45;7.10;99.90
36374;DHT22;22399;51.346;12.372;2024-03-02T05:45:14;7.10;99.90
36374;DHT22;22399;51.346;12.372;2024-03-02T05:47:43;7.20;99.90
36374;DHT22;22399;51.346;12.372;2024-03-02T05:50:13;7.20;99.90
36374;DHT22;22399;51.346;12.372;2024-03-02T05:52:41;7.20;99.90
36374;DHT22;22399;51.346;12.372;2024-03-02T05:55:10;7.30;99.90
36374;DHT22;22399;51.346;12.372;2024-03-02T05:57:38;7.30;99.90
36374;DHT22;22399;51.346;12.372;2024-03-02T06:00:26;7.30;99.90
36374;DHT22;22399;51.346;12.372;2024-03-02T06:02:54;7.30;99.90
36374;DHT22;22399;51.346;12.372;2024-03-02T06:05:25;7.40;99.90
36374;DHT22;22399;51.346;12.372;2024-03-02T06:07:53;7.40;99.90
36374;DHT22;22399;51.346;12.372;2024-03-02T06:10:21;7.40;99.90
36374;DHT22;22399;51.346;12.372;2024-03-02T06:12:50;7.40;99.90
36374;DHT22;22399;51.346;12.372;2024-03-02T06:15:18;7.50;99.90
36374;DHT22;22399;51.346;12.372;2024-03-02T06:17:47;7.50;99.90
36374;DHT22;22399;51.346;12.372;2024-03-02T06:20:15;7.50;99.90
36374;DHT22;22399;51.346;12.372;2024-03-02T06:22:45;7.50;99.90
36374;DHT22;22399;51.346;12.372;2024-03-02T06:25:14;7.60;99.90
36374;DHT22;22399;51.346;12.372;2024-03-02T06:27:42;7.60;99.90
36374;DHT22;22399;51.346;12.372;2024-03-02T06:30:12;7.60;99.90
36374;DHT22;22399;51.346;12.372;2024-03-02T06:32:40;7.60;99.90
36374;DHT22;22399;51.346;12.372;2024-03-02T06:35:09;7.70;99.90
36374;DHT22;22399;51.346;12.372;2024-03-02T06:37:38;7.70;99.90
36374;DHT22;22399;51.346;12.372;2024-03-02T06:40:09;7.70;99.90
36374;DHT22;22399;51.346;12.372;2024-03-02T06:42:37;7.70;99.90
36374;DHT22;22399;51.346;12.372;2024-03-02T06:45:06;7.70;99.90
36374;DHT22;22399;51.346;12.372;2024-03-02T06:47:35;7.80;99.90
36374;DHT22;22399;51.346;12.372;2024-03-02T06:50:04;7.80;99.90
36374;DHT22;22399;51.346;12.372;2024-03-02T06:52:33;7.80;99.90
36374;DHT22;22399;51.346;12.372;2024-03-02T06:55:02;7.80;99.90
36374;DHT22;22399;51.346;12.372;2024-03-02T06:57:32;7.90;99.90
36374;DHT22;22399;51.346;12.372;2024-03-02T07:00:00;7.90;99.90
36374;DHT22;22399;51.346;12.372;2024-03-02T07:02:31;7.90;99.90
36374;DHT22;22399;51.346;12.372;2024-03-02T07:05:00;7.90;99.90
36374;DHT22;22399;51.346;12.372;2024-03-02T07:07:28;8.00;99.90
36374;DHT22;22399;51.346;12.372;2024-03-02T07:09:56;8.00;99.90
36374;DHT22;22399;51.346;12.372;2024-03-02T07:12:25;8.00;99.90
36374;DHT22;22399;51.346;12.372;2024-03-02T07:14:54;8.10;99.90
36374;DHT22;22399;51.346;12.372;2024-03-02T07:17:45;8.20;99.90
36374;DHT22;22399;51.346;12.372;2024-03-02T07:20:14;8.20;99.90
36374;DHT22;22399;51.346;12.372;2024-03-02T07:22:42;8.30;99.90
36374;DHT22;22399;51.346;12.372;2024-03-02T07:25:11;8.30;99.90
36374;DHT22;22399;51.346;12.372;2024-03-02T07:27:42;8.20;99.90
36374;DHT22;22399;51.346;12.372;2024-03-02T07:30:15;8.20;99.90
36374;DHT22;22399;51.346;12.372;2024-03-02T07:32:44;8.20;99.90
36374;DHT22;22399;51.346;12.372;2024-03-02T07:35:13;8.20;99.90
36374;DHT22;22399;51.346;12.372;2024-03-02T07:37:41;8.20;99.90
36374;DHT22;22399;51.346;12.372;2024-03-02T07:40:11;8.20;99.90
36374;DHT22;22399;51.346;12.372;2024-03-02T07:42:40;8.30;99.90
36374;DHT22;22399;51.346;12.372;2024-03-02T07:45:09;8.30;99.90
36374;DHT22;22399;51.346;12.372;2024-03-02T07:47:38;8.30;99.90
36374;DHT22;22399;51.346;12.372;2024-03-02T07:50:07;8.40;99.90
36374;DHT22;22399;51.346;12.372;2024-03-02T07:52:36;8.30;99.90
36374;DHT22;22399;51.346;12.372;2024-03-02T07:55:05;8.40;99.90
36374;DHT22;22399;51.346;12.372;2024-03-02T07:57:33;8.40;99.90
36374;DHT22;22399;51.346;12.372;2024-03-02T08:00:02;8.50;99.90
36374;DHT22;22399;51.346;12.372;2024-03-02T08:02:40;8.50;99.90
36374;DHT22;22399;51.346;12.372;2024-03-02T08:05:09;8.60;99.90
36374;DHT22;22399;51.346;12.372;2024-03-02T08:07:40;8.60;99.90
36374;DHT22;22399;51.346;12.372;2024-03-02T08:10:09;8.70;99.90
36374;DHT22;22399;51.346;12.372;2024-03-02T08:12:37;8.70;99.90
36374;DHT22;22399;51.346;12.372;2024-03-02T08:15:06;8.70;99.90
36374;DHT22;22399;51.346;12.372;2024-03-02T08:17:35;8.70;99.90
36374;DHT22;22399;51.346;12.372;2024-03-02T08:20:07;8.80;99.90
36374;DHT22;22399;51.346;12.372;2024-03-02T08:22:36;8.80;99.90
36374;DHT22;22399;51.346;12.372;2024-03-02T08:25:05;8.90;99.90
36374;DHT22;22399;51.346;12.372;2024-03-02T08:27:33;9.00;99.90
36374;DHT22;22399;51.346;12.372;2024-03-02T08:30:01;9.00;99.90
36374;DHT22;22399;51.346;12.372;2024-03-02T08:32:33;9.10;99.90
36374;DHT22;22399;51.346;12.372;2024-03-02T08:35:02;9.10;99.90
36374;DHT22;22399;51.346;12.372;2024-03-02T08:37:32;9.10;99.90
36374;DHT22;22399;51.346;12.372;2024-03-02T08:40:00;9.20;99.90
36374;DHT22;22399;51.346;12.372;2024-03-02T08:42:31;9.30;99.90
36374;DHT22;22399;51.346;12.372;2024-03-02T08:45:01;9.40;99.90
36374;DHT22;22399;51.346;12.372;2024-03-02T08:47:29;9.40;99.90
36374;DHT22;22399;51.346;12.372;2024-03-02T08:49:57;9.50;99.90
36374;DHT22;22399;51.346;12.372;2024-03-02T08:52:28;9.60;99.90
36374;DHT22;22399;51.346;12.372;2024-03-02T08:54:57;9.60;99.90
36374;DHT22;22399;51.346;12.372;2024-03-02T08:57:26;9.70;99.90
36374;DHT22;22399;51.346;12.372;2024-03-02T08:59:54;9.80;99.90
36374;DHT22;22399;51.346;12.372;2024-03-02T09:02:23;9.90;99.90
36374;DHT22;22399;51.346;12.372;2024-03-02T09:04:52;9.90;99.90
36374;DHT22;22399;51.346;12.372;2024-03-02T09:07:20;10.00;99.90
36374;DHT22;22399;51.346;12.372;2024-03-02T09:09:49;10.10;99.90
36374;DHT22;22399;51.346;12.372;2024-03-02T09:12:19;10.20;99.90
36374;DHT22;22399;51.346;12.372;2024-03-02T09:14:49;10.30;99.90
36374;DHT22;22399;51.346;12.372;2024-03-02T09:17:18;10.40;99.90
36374;DHT22;22399;51.346;12.372;2024-03-02T09:19:46;10.60;99.90
36374;DHT22;22399;51.346;12.372;2024-03-02T09:22:14;10.70;99.90
36374;DHT22;22399;51.346;12.372;2024-03-02T09:24:43;10.80;99.90
36374;DHT22;22399;51.346;12.372;2024-03-02T09:27:11;10.90;99.90
36374;DHT22;22399;51.346;12.372;2024-03-02T09:29:41;11.00;99.90
36374;DHT22;22399;51.346;12.372;2024-03-02T09:32:13;11.00;99.90
36374;DHT22;22399;51.346;12.372;2024-03-02T09:34:42;11.00;99.90
36374;DHT22;22399;51.346;12.372;2024-03-02T09:37:10;11.00;99.90
36374;DHT22;22399;51.346;12.372;2024-03-02T09:39:38;11.10;99.90
36374;DHT22;22399;51.346;12.372;2024-03-02T09:42:07;11.00;99.90
36374;DHT22;22399;51.346;12.372;2024-03-02T09:44:37;11.10;99.90
36374;DHT22;22399;51.346;12.372;2024-03-02T09:47:08;11.10;99.90
36374;DHT22;22399;51.346;12.372;2024-03-02T09:49:36;11.00;99.90
36374;DHT22;22399;51.346;12.372;2024-03-02T09:52:07;11.00;99.90
36374;DHT22;22399;51.346;12.372;2024-03-02T09:54:36;11.00;99.90
36374;DHT22;22399;51.346;12.372;2024-03-02T09:57:05;10.90;99.90
36374;DHT22;22399;51.346;12.372;2024-03-02T09:59:34;10.90;99.90
36374;DHT22;22399;51.346;12.372;2024-03-02T10:02:03;10.90;99.90
36374;DHT22;22399;51.346;12.372;2024-03-02T10:04:35;10.90;99.90
36374;DHT22;22399;51.346;12.372;2024-03-02T10:07:11;11.00;99.90
36374;DHT22;22399;51.346;12.372;2024-03-02T10:09:40;11.00;99.90
36374;DHT22;22399;51.346;12.372;2024-03-02T10:12:09;11.10;99.90
36374;DHT22;22399;51.346;12.372;2024-03-02T10:14:38;11.20;99.90
36374;DHT22;22399;51.346;12.372;2024-03-02T10:17:08;11.30;99.90
36374;DHT22;22399;51.346;12.372;2024-03-02T10:19:38;11.50;99.90
36374;DHT22;22399;51.346;12.372;2024-03-02T10:22:08;11.80;99.90
36374;DHT22;22399;51.346;12.372;2024-03-02T10:24:37;12.10;99.90
36374;DHT22;22399;51.346;12.372;2024-03-02T10:27:14;12.40;99.90
36374;DHT22;22399;51.346;12.372;2024-03-02T10:29:45;12.70;99.90
36374;DHT22;22399;51.346;12.372;2024-03-02T10:32:15;12.90;99.90
36374;DHT22;22399;51.346;12.372;2024-03-02T10:34:46;13.00;99.90
36374;DHT22;22399;51.346;12.372;2024-03-02T10:37:15;13.10;99.90
36374;DHT22;22399;51.346;12.372;2024-03-02T10:39:46;13.30;99.90
36374;DHT22;22399;51.346;12.372;2024-03-02T10:42:16;13.30;99.90
36374;DHT22;22399;51.346;12.372;2024-03-02T10:44:46;13.40;99.90
36374;DHT22;22399;51.346;12.372;2024-03-02T10:47:18;13.90;99.90
36374;DHT22;22399;51.346;12.372;2024-03-02T10:49:51;14.40;99.90
36374;DHT22;22399;51.346;12.372;2024-03-02T10:52:20;14.80;99.90
36374;DHT22;22399;51.346;12.372;2024-03-02T10:54:50;15.00;99.90
36374;DHT22;22399;51.346;12.372;2024-03-02T10:57:21;15.10;99.90
36374;DHT22;22399;51.346;12.372;2024-03-02T10:59:53;15.00;99.90
36374;DHT22;22399;51.346;12.372;2024-03-02T11:02:25;15.20;99.90
36374;DHT22;22399;51.346;12.372;2024-03-02T11:04:56;15.40;99.90
36374;DHT22;22399;51.346;12.372;2024-03-02T11:07:27;15.60;99.90
36374;DHT22;22399;51.346;12.372;2024-03-02T11:09:59;15.80;99.90
36374;DHT22;22399;51.346;12.372;2024-03-02T11:12:29;15.90;99.90
36374;DHT22;22399;51.346;12.372;2024-03-02T11:15:00;15.80;99.90
36374;DHT22;22399;51.346;12.372;2024-03-02T11:17:29;15.70;99.90
36374;DHT22;22399;51.346;12.372;2024-03-02T11:19:59;15.70;99.90
36374;DHT22;22399;51.346;12.372;2024-03-02T11:22:28;15.70;99.90
36374;DHT22;22399;51.346;12.372;2024-03-02T11:24:57;15.90;99.90
36374;DHT22;22399;51.346;12.372;2024-03-02T11:28:03;16.10;99.90
36374;DHT22;22399;51.346;12.372;2024-03-02T11:30:51;16.40;99.90
36374;DHT22;22399;51.346;12.372;2024-03-02T11:33:24;16.60;99.90
36374;DHT22;22399;51.346;12.372;2024-03-02T11:35:56;16.80;99.70
36374;DHT22;22399;51.346;12.372;2024-03-02T11:38:32;16.80;98.90
36374;DHT22;22399;51.346;12.372;2024-03-02T11:41:01;16.90;98.30
36374;DHT22;22399;51.346;12.372;2024-03-02T11:43:30;17.00;97.70
36374;DHT22;22399;51.346;12.372;2024-03-02T11:46:01;16.90;97.30
36374;DHT22;22399;51.346;12.372;2024-03-02T11:48:35;16.90;97.40
36374;DHT22;22399;51.346;12.372;2024-03-02T11:51:06;16.90;97.20
36374;DHT22;22399;51.346;12.372;2024-03-02T11:53:35;16.70;96.30
36374;DHT22;22399;51.346;12.372;2024-03-02T11:56:09;16.80;96.80
36374;DHT22;22399;51.346;12.372;2024-03-02T11:58:39;16.80;96.10
36374;DHT22;22399;51.346;12.372;2024-03-02T12:01:10;16.60;95.90
36374;DHT22;22399;51.346;12.372;2024-03-02T12:03:39;16.70;96.20
36374;DHT22;22399;51.346;12.372;2024-03-02T12:06:09;16.60;95.10
36374;DHT22;22399;51.346;12.372;2024-03-02T12:08:38;16.70;95.30
36374;DHT22;22399;51.346;12.372;2024-03-02T12:11:06;16.50;94.80
36374;DHT22;22399;51.346;12.372;2024-03-02T12:13:35;16.30;94.70
36374;DHT22;22399;51.346;12.372;2024-03-02T12:16:04;16.40;94.80
36374;DHT22;22399;51.346;12.372;2024-03-02T12:18:32;16.20;94.20
36374;DHT22;22399;51.346;12.372;2024-03-02T12:21:01;16.10;93.80
36374;DHT22;22399;51.346;12.372;2024-03-02T12:23:35;16.20;94.00
36374;DHT22;22399;51.346;12.372;2024-03-02T12:26:03;16.20;93.60
36374;DHT22;22399;51.346;12.372;2024-03-02T12:28:32;16.30;93.30
36374;DHT22;22399;51.346;12.372;2024-03-02T12:31:02;16.60;93.30
36374;DHT22;22399;51.346;12.372;2024-03-02T12:33:30;17.10;93.50
36374;DHT22;22399;51.346;12.372;2024-03-02T12:35:59;17.30;92.60
36374;DHT22;22399;51.346;12.372;2024-03-02T12:38:27;17.10;92.50
36374;DHT22;22399;51.346;12.372;2024-03-02T12:40:57;17.00;92.50
36374;DHT22;22399;51.346;12.372;2024-03-02T12:43:30;17.10;92.40
36374;DHT22;22399;51.346;12.372;2024-03-02T12:45:59;16.90;92.30
36374;DHT22;22399;51.346;12.372;2024-03-02T12:48:28;16.90;92.10
36374;DHT22;22399;51.346;12.372;2024-03-02T12:50:56;16.70;91.90
36374;DHT22;22399;51.346;12.372;2024-03-02T12:53:24;16.70;91.60
36374;DHT22;22399;51.346;12.372;2024-03-02T12:55:53;16.70;91.60
36374;DHT22;22399;51.346;12.372;2024-03-02T12:58:24;16.80;91.60
36374;DHT22;22399;51.346;12.372;2024-03-02T13:01:06;16.90;91.40
36374;DHT22;22399;51.346;12.372;2024-03-02T13:03:36;16.90;91.30
36374;DHT22;22399;51.346;12.372;2024-03-02T13:06:06;17.00;91.00
36374;DHT22;22399;51.346;12.372;2024-03-02T13:08:35;17.30;90.80
36374;DHT22;22399;51.346;12.372;2024-03-02T13:11:04;17.30;90.50
36374;DHT22;22399;51.346;12.372;2024-03-02T13:13:36;17.40;90.60
36374;DHT22;22399;51.346;12.372;2024-03-02T13:16:07;17.50;90.30
36374;DHT22;22399;51.346;12.372;2024-03-02T13:18:36;17.60;90.00
36374;DHT22;22399;51.346;12.372;2024-03-02T13:21:05;17.50;89.10
36374;DHT22;22399;51.346;12.372;2024-03-02T13:23:33;17.50;88.60
36374;DHT22;22399;51.346;12.372;2024-03-02T13:26:01;17.30;87.70
36374;DHT22;22399;51.346;12.372;2024-03-02T13:28:30;17.10;86.80
36374;DHT22;22399;51.346;12.372;2024-03-02T13:31:00;17.20;87.10
36374;DHT22;22399;51.346;12.372;2024-03-02T13:33:28;17.30;86.80
36374;DHT22;22399;51.346;12.372;2024-03-02T13:35:58;17.40;86.30
36374;DHT22;22399;51.346;12.372;2024-03-02T13:38:26;17.40;86.10
36374;DHT22;22399;51.346;12.372;2024-03-02T13:40:54;17.60;85.90
36374;DHT22;22399;51.346;12.372;2024-03-02T13:43:23;17.80;85.90
36374;DHT22;22399;51.346;12.372;2024-03-02T13:45:51;17.70;85.20
36374;DHT22;22399;51.346;12.372;2024-03-02T13:48:21;17.60;84.60
36374;DHT22;22399;51.346;12.372;2024-03-02T13:50:50;17.00;84.20
36374;DHT22;22399;51.346;12.372;2024-03-02T13:53:19;16.60;84.80
36374;DHT22;22399;51.346;12.372;2024-03-02T13:55:48;16.30;85.70
36374;DHT22;22399;51.346;12.372;2024-03-02T13:58:17;16.70;85.90
36374;DHT22;22399;51.346;12.372;2024-03-02T14:00:45;16.70;85.20
36374;DHT22;22399;51.346;12.372;2024-03-02T14:03:14;16.50;85.00
36374;DHT22;22399;51.346;12.372;2024-03-02T14:05:44;16.80;85.20
36374;DHT22;22399;51.346;12.372;2024-03-02T14:08:14;17.00;84.40
36374;DHT22;22399;51.346;12.372;2024-03-02T14:10:42;17.00;83.80
36374;DHT22;22399;51.346;12.372;2024-03-02T14:13:11;17.20;83.80
36374;DHT22;22399;51.346;12.372;2024-03-02T14:15:39;17.40;83.50
36374;DHT22;22399;51.346;12.372;2024-03-02T14:18:08;17.70;82.70
36374;DHT22;22399;51.346;12.372;2024-03-02T14:20:37;17.40;82.00
36374;DHT22;22399;51.346;12.372;2024-03-02T14:23:09;17.10;82.40
36374;DHT22;22399;51.346;12.372;2024-03-02T14:25:38;16.90;83.10
36374;DHT22;22399;51.346;12.372;2024-03-02T14:28:06;17.10;82.60
36374;DHT22;22399;51.346;12.372;2024-03-02T14:30:54;17.20;82.10
36374;DHT22;22399;51.346;12.372;2024-03-02T14:33:23;17.10;81.50
36374;DHT22;22399;51.346;12.372;2024-03-02T14:35:51;17.10;81.70
36374;DHT22;22399;51.346;12.372;2024-03-02T14:38:22;17.20;81.60
36374;DHT22;22399;51.346;12.372;2024-03-02T14:40:50;16.90;81.50
36374;DHT22;22399;51.346;12.372;2024-03-02T14:43:20;16.70;82.40
36374;DHT22;22399;51.346;12.372;2024-03-02T14:45:48;16.70;81.80
36374;DHT22;22399;51.346;12.372;2024-03-02T14:48:17;16.50;81.70
36374;DHT22;22399;51.346;12.372;2024-03-02T14:50:46;16.70;81.70
36374;DHT22;22399;51.346;12.372;2024-03-02T14:53:14;16.80;81.10
36374;DHT22;22399;51.346;12.372;2024-03-02T14:55:43;16.70;80.70
36374;DHT22;22399;51.346;12.372;2024-03-02T14:58:12;16.60;80.80
36374;DHT22;22399;51.346;12.372;2024-03-02T15:00:40;16.40;80.70
36374;DHT22;22399;51.346;12.372;2024-03-02T15:03:09;16.20;81.00
36374;DHT22;22399;51.346;12.372;2024-03-02T15:05:46;15.80;81.40
36374;DHT22;22399;51.346;12.372;2024-03-02T15:08:18;15.50;82.40
36374;DHT22;22399;51.346;12.372;2024-03-02T15:10:48;15.20;82.90
36374;DHT22;22399;51.346;12.372;2024-03-02T15:13:17;14.80;83.50
36374;DHT22;22399;51.346;12.372;2024-03-02T15:15:45;14.60;84.00
36374;DHT22;22399;51.346;12.372;2024-03-02T15:18:13;14.60;84.70
36374;DHT22;22399;51.346;12.372;2024-03-02T15:20:42;14.40;84.40
36374;DHT22;22399;51.346;12.372;2024-03-02T15:23:10;14.40;84.60
36374;DHT22;22399;51.346;12.372;2024-03-02T15:25:38;14.30;84.60
36374;DHT22;22399;51.346;12.372;2024-03-02T15:28:08;14.20;84.50
36374;DHT22;22399;51.346;12.372;2024-03-02T15:30:37;14.10;84.50
36374;DHT22;22399;51.346;12.372;2024-03-02T15:33:05;14.10;84.60
36374;DHT22;22399;51.346;12.372;2024-03-02T15:35:35;14.00;84.60
36374;DHT22;22399;51.346;12.372;2024-03-02T15:38:04;13.90;84.50
36374;DHT22;22399;51.346;12.372;2024-03-02T15:40:44;13.80;84.60